createdAt,value
2023-09-15T00:01:41.404Z,93587.97
2023-09-15T00:04:11.480Z,93584.03
2023-09-15T00:06:39.298Z,93582.03
2023-09-15T00:09:15.443Z,93580.38
2023-09-15T00:11:43.962Z,93579.38
2023-09-15T00:14:13.457Z,93575.03
2023-09-15T00:16:42.611Z,93585.13
2023-09-15T00:19:16.177Z,93579.91
2023-09-15T00:21:44.888Z,93582.34
2023-09-15T00:24:12.557Z,93583.19
2023-09-15T00:26:40.470Z,93587.22
2023-09-15T00:29:09.437Z,93587.78
2023-09-15T00:31:37.631Z,93580.38
2023-09-15T00:34:05.917Z,93585.50
2023-09-15T00:36:34.085Z,93586.25
2023-09-15T00:39:02.952Z,93587.50
2023-09-15T00:41:30.354Z,93582.34
2023-09-15T00:43:57.683Z,93585.97
2023-09-15T00:46:25.808Z,93590.69
2023-09-15T00:48:53.606Z,93593.91
2023-09-15T00:51:22.871Z,93598.44
2023-09-15T00:53:51.562Z,93593.72
2023-09-15T00:56:19.376Z,93594.97
2023-09-15T00:58:48.180Z,93593.47
2023-09-15T01:01:18.142Z,93594.06
2023-09-15T01:03:47.485Z,93598.69
2023-09-15T01:06:17.373Z,93600.22
2023-09-15T01:08:45.371Z,93606.16
2023-09-15T01:11:13.081Z,93603.31
2023-09-15T01:13:40.887Z,93610.88
2023-09-15T01:16:17.564Z,93611.91
2023-09-15T01:19:09.367Z,93613.72
2023-09-15T01:21:43.180Z,93614.53
2023-09-15T01:24:32.148Z,93619.09
2023-09-15T01:27:15.020Z,93612.69
2023-09-15T01:29:45.755Z,93608.59
2023-09-15T01:32:15.849Z,93618.66
2023-09-15T01:34:49.398Z,93617.28
2023-09-15T01:37:18.547Z,93615.25
2023-09-15T01:39:47.032Z,93614.78
2023-09-15T01:42:14.730Z,93620.41
2023-09-15T01:44:42.415Z,93615.66
2023-09-15T01:49:40.367Z,93618.56
2023-09-15T01:52:09.039Z,93619.19
2023-09-15T01:54:37.157Z,93624.66
2023-09-15T01:57:04.940Z,93637.03
2023-09-15T01:59:34.095Z,93633.56
2023-09-15T02:02:01.578Z,93625.81
2023-09-15T02:04:29.383Z,93633.19
2023-09-15T02:06:56.812Z,93622.69
2023-09-15T02:09:24.187Z,93632.00
2023-09-15T02:11:51.891Z,93631.97
2023-09-15T02:14:19.323Z,93630.13
2023-09-15T02:16:47.122Z,93631.19
2023-09-15T02:19:15.229Z,93631.22
2023-09-15T02:21:42.700Z,93634.59
2023-09-15T02:24:10.411Z,93637.25
2023-09-15T02:26:37.786Z,93638.63
2023-09-15T02:29:05.180Z,93645.81
2023-09-15T02:31:33.126Z,93638.09
2023-09-15T02:34:01.454Z,93635.47
2023-09-15T02:36:29.063Z,93640.22
2023-09-15T02:38:56.747Z,93632.78
2023-09-15T02:41:24.056Z,93633.34
2023-09-15T02:43:51.514Z,93643.16
2023-09-15T02:46:19.606Z,93640.25
2023-09-15T02:48:47.354Z,93641.88
2023-09-15T02:51:16.251Z,93636.59
2023-09-15T02:53:43.941Z,93637.13
2023-09-15T02:56:11.251Z,93645.34
2023-09-15T02:58:39.246Z,93641.69
2023-09-15T03:01:15.814Z,93647.75
2023-09-15T03:03:43.776Z,93647.50
2023-09-15T03:06:11.619Z,93651.44
2023-09-15T03:08:39.157Z,93647.25
2023-09-15T03:11:13.509Z,93648.56
2023-09-15T03:13:42.712Z,93652.00
2023-09-15T03:16:11.611Z,93657.53
2023-09-15T03:18:39.320Z,93659.66
2023-09-15T03:21:07.498Z,93663.91
2023-09-15T03:23:35.147Z,93664.72
2023-09-15T03:26:04.426Z,93663.12
2023-09-15T03:28:35.008Z,93661.00
2023-09-15T03:31:06.053Z,93668.44
2023-09-15T03:33:33.990Z,93665.25
2023-09-15T03:36:01.935Z,93671.88
2023-09-15T03:38:29.932Z,93678.22
2023-09-15T03:40:58.141Z,93672.41
2023-09-15T03:43:25.965Z,93672.66
2023-09-15T03:45:54.197Z,93673.19
2023-09-15T03:48:22.402Z,93678.50
2023-09-15T03:50:50.015Z,93688.00
2023-09-15T03:53:18.422Z,93679.03
2023-09-15T03:55:46.147Z,93680.63
2023-09-15T03:58:13.852Z,93683.25
2023-09-15T04:00:41.424Z,93684.81
2023-09-15T04:03:09.806Z,93681.13
2023-09-15T04:05:37.383Z,93687.50
2023-09-15T04:08:04.880Z,93681.13
2023-09-15T04:10:32.710Z,93691.16
2023-09-15T04:13:00.209Z,93682.97
2023-09-15T04:15:27.862Z,93692.75
2023-09-15T04:17:56.894Z,93687.19
2023-09-15T04:20:35.213Z,93684.28
2023-09-15T04:23:13.296Z,93691.69
2023-09-15T04:25:40.911Z,93696.19
2023-09-15T04:28:09.350Z,93703.31
2023-09-15T04:30:37.712Z,93702.00
2023-09-15T04:33:05.675Z,93713.87
2023-09-15T04:35:33.256Z,93720.97
2023-09-15T04:38:01.283Z,93715.47
2023-09-15T04:40:29.201Z,93718.09
2023-09-15T04:42:56.580Z,93726.81
2023-09-15T04:45:25.616Z,93723.62
2023-09-15T04:47:53.639Z,93725.97
2023-09-15T04:50:21.160Z,93729.94
2023-09-15T04:52:49.115Z,93727.84
2023-09-15T04:55:16.861Z,93731.53
2023-09-15T04:57:44.345Z,93730.22
2023-09-15T05:00:25.018Z,93730.47
2023-09-15T05:02:53.160Z,93728.66
2023-09-15T05:05:21.318Z,93726.81
2023-09-15T05:07:48.807Z,93732.91
2023-09-15T05:10:16.333Z,93731.59
2023-09-15T05:12:44.405Z,93730.25
2023-09-15T05:15:12.260Z,93727.63
2023-09-15T05:17:40.089Z,93723.41
2023-09-15T05:20:08.604Z,93726.03
2023-09-15T05:22:36.131Z,93731.03
2023-09-15T05:25:06.221Z,93730.25
2023-09-15T05:27:34.082Z,93735.31
2023-09-15T05:30:01.416Z,93735.53
2023-09-15T05:32:31.203Z,93732.91
2023-09-15T05:34:58.998Z,93736.37
2023-09-15T05:37:26.711Z,93736.37
2023-09-15T05:39:54.076Z,93732.94
2023-09-15T05:42:22.659Z,93732.41
2023-09-15T05:44:50.211Z,93734.25
2023-09-15T05:47:17.727Z,93734.00
2023-09-15T05:49:45.429Z,93736.91
2023-09-15T05:52:12.816Z,93733.72
2023-09-15T05:54:40.263Z,93735.81
2023-09-15T05:57:08.281Z,93731.06
2023-09-15T05:59:35.836Z,93743.41
2023-09-15T06:02:03.305Z,93741.38
2023-09-15T06:04:31.073Z,93744.75
2023-09-15T06:06:58.680Z,93737.28
2023-09-15T06:09:26.045Z,93739.69
2023-09-15T06:11:53.985Z,93736.50
2023-09-15T06:14:21.527Z,93737.50
2023-09-15T06:16:49.092Z,93734.66
2023-09-15T06:19:17.064Z,93737.69
2023-09-15T06:21:44.521Z,93733.00
2023-09-15T06:24:12.199Z,93729.94
2023-09-15T06:26:39.840Z,93732.06
2023-09-15T06:29:07.543Z,93727.28
2023-09-15T06:31:35.023Z,93728.69
2023-09-15T06:34:02.823Z,93718.66
2023-09-15T06:36:30.421Z,93720.78
2023-09-15T06:38:57.797Z,93720.53
2023-09-15T06:41:25.499Z,93724.47
2023-09-15T06:43:52.860Z,93724.91
2023-09-15T06:46:23.514Z,93727.94
2023-09-15T06:48:51.899Z,93726.56
2023-09-15T06:51:19.539Z,93722.56
2023-09-15T06:53:47.201Z,93715.94
2023-09-15T06:56:14.945Z,93715.41
2023-09-15T06:58:42.269Z,93716.19
2023-09-15T07:01:10.115Z,93713.66
2023-09-15T07:03:37.783Z,93715.47
2023-09-15T07:06:05.175Z,93718.63
2023-09-15T07:08:32.646Z,93705.63
2023-09-15T07:11:00.467Z,93705.81
2023-09-15T07:13:27.910Z,93717.38
2023-09-15T07:15:55.382Z,93719.00
2023-09-15T07:18:23.100Z,93711.94
2023-09-15T07:20:50.798Z,93710.78
2023-09-15T07:23:18.297Z,93708.69
2023-09-15T07:25:50.180Z,93713.56
2023-09-15T07:28:17.648Z,93705.06
2023-09-15T07:30:45.697Z,93707.25
2023-09-15T07:33:13.208Z,93707.53
2023-09-15T07:35:40.589Z,93707.25
2023-09-15T07:38:08.797Z,93716.31
2023-09-15T07:40:36.463Z,93715.13
2023-09-15T07:43:04.446Z,93716.47
2023-09-15T07:45:32.493Z,93710.44
2023-09-15T07:48:00.234Z,93717.97
2023-09-15T07:50:29.008Z,93712.87
2023-09-15T07:52:56.876Z,93716.44
2023-09-15T07:55:24.747Z,93713.34
2023-09-15T07:57:52.197Z,93705.31
2023-09-15T08:00:20.509Z,93705.41
2023-09-15T08:02:48.729Z,93702.81
2023-09-15T08:05:16.436Z,93693.59
2023-09-15T08:07:48.425Z,93702.16
2023-09-15T08:10:19.246Z,93691.09
2023-09-15T08:12:46.710Z,93692.91
2023-09-15T08:15:15.593Z,93693.69
2023-09-15T08:17:43.587Z,93686.19
2023-09-15T08:20:12.624Z,93690.44
2023-09-15T08:22:40.165Z,93690.78
2023-09-15T08:25:09.160Z,93684.06
2023-09-15T08:27:36.525Z,93679.03
2023-09-15T08:30:04.837Z,93678.31
2023-09-15T08:32:35.549Z,93674.56
2023-09-15T08:35:05.274Z,93672.16
2023-09-15T08:37:33.250Z,93666.50
2023-09-15T08:40:02.056Z,93664.94
2023-09-15T08:42:30.683Z,93667.00
2023-09-15T08:44:59.400Z,93663.38
2023-09-15T08:47:33.301Z,93660.78
2023-09-15T08:50:05.234Z,93662.00
2023-09-15T08:52:33.553Z,93665.09
2023-09-15T08:55:03.289Z,93650.44
2023-09-15T08:57:32.079Z,93653.19
2023-09-15T09:00:00.699Z,93648.09
2023-09-15T09:02:29.941Z,93645.47
2023-09-15T09:04:57.970Z,93648.81
2023-09-15T09:07:26.172Z,93641.38
2023-09-15T09:09:55.774Z,93640.78
2023-09-15T09:12:23.239Z,93636.34
2023-09-15T09:14:56.329Z,93641.59
2023-09-15T09:17:24.742Z,93635.69
2023-09-15T09:19:52.157Z,93640.50
2023-09-15T09:22:20.676Z,93633.59
2023-09-15T09:24:58.802Z,93639.41
2023-09-15T09:27:35.808Z,93638.72
2023-09-15T09:30:04.884Z,93634.78
2023-09-15T09:32:32.350Z,93634.16
2023-09-15T09:34:59.982Z,93637.06
2023-09-15T09:37:27.967Z,93633.72
2023-09-15T09:39:55.656Z,93638.03
2023-09-15T09:42:25.410Z,93634.00
2023-09-15T09:44:54.272Z,93632.88
2023-09-15T09:47:23.487Z,93636.31
2023-09-15T09:49:53.356Z,93629.84
2023-09-15T09:52:23.198Z,93633.59
2023-09-15T09:54:51.963Z,93633.34
2023-09-15T09:57:21.263Z,93630.75
2023-09-15T09:59:49.811Z,93624.19
2023-09-15T10:02:17.363Z,93634.47
2023-09-15T10:04:45.156Z,93628.09
2023-09-15T10:07:13.243Z,93631.97
2023-09-15T10:09:40.906Z,93629.37
2023-09-15T10:12:09.375Z,93636.97
2023-09-15T10:14:37.050Z,93622.03
2023-09-15T10:17:04.913Z,93628.34
2023-09-15T10:19:33.296Z,93628.34
2023-09-15T10:22:01.604Z,93625.16
2023-09-15T10:24:29.117Z,93619.66
2023-09-15T10:26:56.883Z,93618.16
2023-09-15T10:29:31.843Z,93615.94
2023-09-15T10:32:04.779Z,93614.37
2023-09-15T10:34:33.770Z,93618.62
2023-09-15T10:37:03.642Z,93614.59
2023-09-15T10:39:40.116Z,93609.81
2023-09-15T10:42:09.608Z,93610.69
2023-09-15T10:44:37.373Z,93616.88
2023-09-15T10:47:17.096Z,93609.34
2023-09-15T10:49:55.150Z,93599.41
2023-09-15T10:52:36.938Z,93612.59
2023-09-15T10:55:05.429Z,93604.06
2023-09-15T10:57:37.532Z,93604.53
2023-09-15T11:00:08.165Z,93604.81
2023-09-15T11:02:40.869Z,93591.84
2023-09-15T11:05:09.366Z,93596.31
2023-09-15T11:07:37.577Z,93588.31
2023-09-15T11:10:07.265Z,93593.31
2023-09-15T11:12:35.166Z,93588.41
2023-09-15T11:15:03.447Z,93587.50
2023-09-15T11:17:31.825Z,93587.34
2023-09-15T11:20:05.476Z,93596.19
2023-09-15T11:22:35.387Z,93583.31
2023-09-15T11:25:14.916Z,93582.87
2023-09-15T11:27:48.103Z,93579.06
2023-09-15T11:30:16.323Z,93579.09
2023-09-15T11:32:43.914Z,93577.16
2023-09-15T11:35:13.688Z,93567.84
2023-09-15T11:37:43.219Z,93568.44
2023-09-15T11:40:21.090Z,93577.09
2023-09-15T11:42:59.480Z,93573.06
2023-09-15T11:45:29.854Z,93570.25
2023-09-15T11:48:00.790Z,93570.06
2023-09-15T11:50:30.192Z,93557.72
2023-09-15T11:52:58.161Z,93562.13
2023-09-15T11:55:26.390Z,93563.69
2023-09-15T11:57:54.359Z,93554.03
2023-09-15T12:00:25.071Z,93551.56
2023-09-15T12:02:54.692Z,93550.38
2023-09-15T12:05:23.499Z,93547.00
2023-09-15T12:07:51.593Z,93544.28
2023-09-15T12:10:22.731Z,93537.97
2023-09-15T12:12:50.759Z,93544.84
2023-09-15T12:15:18.888Z,93542.16
2023-09-15T12:17:46.882Z,93535.06
2023-09-15T12:20:14.489Z,93544.69
2023-09-15T12:22:44.152Z,93537.84
2023-09-15T12:25:17.890Z,93538.28
2023-09-15T12:27:45.759Z,93539.66
2023-09-15T12:30:14.092Z,93524.97
2023-09-15T12:32:41.433Z,93534.22
2023-09-15T12:35:13.685Z,93526.81
2023-09-15T12:37:44.794Z,93529.41
2023-09-15T12:40:14.427Z,93522.00
2023-09-15T12:42:42.663Z,93523.09
2023-09-15T12:45:10.798Z,93512.84
2023-09-15T12:47:41.100Z,93510.25
2023-09-15T12:50:08.751Z,93516.84
2023-09-15T12:52:36.831Z,93511.84
2023-09-15T12:55:05.367Z,93517.81
2023-09-15T12:57:32.870Z,93506.31
2023-09-15T13:00:00.272Z,93494.28
2023-09-15T13:02:29.144Z,93498.47
2023-09-15T13:04:56.826Z,93499.13
2023-09-15T13:07:24.361Z,93497.09
2023-09-15T13:09:52.186Z,93493.19
2023-09-15T13:12:19.624Z,93497.34
2023-09-15T13:14:48.625Z,93495.16
2023-09-15T13:17:16.432Z,93496.06
2023-09-15T13:19:43.916Z,93487.47
2023-09-15T13:22:11.269Z,93497.16
2023-09-15T13:24:38.991Z,93488.97
2023-09-15T13:27:06.559Z,93497.47
2023-09-15T13:29:33.964Z,93500.66
2023-09-15T13:32:01.640Z,93493.69
2023-09-15T13:34:29.089Z,93497.91
2023-09-15T13:36:56.561Z,93491.00
2023-09-15T13:39:24.759Z,93497.72
2023-09-15T13:41:52.277Z,93495.28
2023-09-15T13:44:19.663Z,93491.84
2023-09-15T13:46:47.454Z,93487.91
2023-09-15T13:49:15.157Z,93486.84
2023-09-15T13:51:43.462Z,93489.72
2023-09-15T13:54:12.084Z,93486.16
2023-09-15T13:56:39.592Z,93480.97
2023-09-15T13:59:07.133Z,93483.91
2023-09-15T14:01:37.756Z,93481.88
2023-09-15T14:04:08.414Z,93477.37
2023-09-15T14:06:35.998Z,93478.28
2023-09-15T14:09:03.467Z,93474.34
2023-09-15T14:11:31.338Z,93470.84
2023-09-15T14:13:58.661Z,93470.72
2023-09-15T14:16:26.527Z,93473.75
2023-09-15T14:18:54.340Z,93474.22
2023-09-15T14:21:21.829Z,93482.34
2023-09-15T14:23:49.370Z,93474.16
2023-09-15T14:26:17.186Z,93476.13
2023-09-15T14:28:44.562Z,93478.53
2023-09-15T14:31:11.928Z,93480.12
2023-09-15T14:33:39.663Z,93479.50
2023-09-15T14:36:07.242Z,93472.69
2023-09-15T14:38:35.066Z,93473.28
2023-09-15T14:41:02.811Z,93474.72
2023-09-15T14:43:30.157Z,93480.03
2023-09-15T14:45:57.594Z,93477.25
2023-09-15T14:48:26.251Z,93488.38
2023-09-15T14:50:54.888Z,93479.94
2023-09-15T14:53:22.340Z,93486.03
2023-09-15T14:55:50.049Z,93488.59
2023-09-15T14:58:17.474Z,93493.31
2023-09-15T15:00:44.943Z,93491.69
2023-09-15T15:03:12.753Z,93490.38
2023-09-15T15:05:40.222Z,93481.41
2023-09-15T15:08:07.650Z,93480.38
2023-09-15T15:10:35.438Z,93488.47
2023-09-15T15:13:03.060Z,93492.97
2023-09-15T15:15:31.204Z,93500.50
2023-09-15T15:17:59.223Z,93498.16
2023-09-15T15:20:26.692Z,93500.53
2023-09-15T15:22:54.095Z,93504.03
2023-09-15T15:25:22.187Z,93496.72
2023-09-15T15:27:49.588Z,93507.22
2023-09-15T15:30:17.057Z,93504.03
2023-09-15T15:32:44.961Z,93505.03
2023-09-15T15:35:12.415Z,93504.97
2023-09-15T15:37:42.021Z,93509.38
2023-09-15T15:40:10.975Z,93512.94
2023-09-15T15:42:38.574Z,93512.09
2023-09-15T15:45:06.516Z,93514.50
2023-09-15T15:47:34.357Z,93506.19
2023-09-15T15:50:01.802Z,93517.44
2023-09-15T15:52:29.348Z,93514.87
2023-09-15T15:54:57.215Z,93522.59
2023-09-15T15:57:24.610Z,93521.31
2023-09-15T15:59:52.011Z,93522.69
2023-09-15T16:02:19.978Z,93523.19
2023-09-15T16:04:48.800Z,93529.31
2023-09-15T16:07:16.313Z,93532.09
2023-09-15T16:09:43.757Z,93528.03
2023-09-15T16:12:11.510Z,93530.13
2023-09-15T16:14:39.185Z,93525.53
2023-09-15T16:17:06.809Z,93529.72
2023-09-15T16:19:34.679Z,93524.84
2023-09-15T16:22:04.758Z,93528.56
2023-09-15T16:24:32.449Z,93540.31
2023-09-15T16:27:00.147Z,93544.00
2023-09-15T16:33:40.897Z,93554.97
2023-09-15T16:36:08.689Z,93554.97
2023-09-15T16:38:36.098Z,93552.09
2023-09-15T16:41:03.756Z,93558.47
2023-09-15T16:43:33.170Z,93565.75
2023-09-15T16:46:00.937Z,93564.34
2023-09-15T16:48:31.163Z,93565.91
2023-09-15T16:50:59.522Z,93567.47
2023-09-15T16:53:27.235Z,93573.00
2023-09-15T16:55:55.689Z,93582.94
2023-09-15T16:58:23.505Z,93589.53
2023-09-15T17:00:55.628Z,93577.28
2023-09-15T17:03:23.782Z,93585.97
2023-09-15T17:05:51.456Z,93591.50
2023-09-15T17:08:20.255Z,93591.59
2023-09-15T17:10:48.320Z,93591.47
2023-09-15T17:13:15.680Z,93594.09
2023-09-15T17:15:43.520Z,93597.06
2023-09-15T17:18:11.416Z,93607.47
2023-09-15T17:20:38.837Z,93614.72
2023-09-15T17:23:06.177Z,93619.25
2023-09-15T17:25:33.853Z,93618.78
2023-09-15T17:28:03.862Z,93620.19
2023-09-15T17:30:31.220Z,93627.22
2023-09-15T17:32:59.293Z,93629.66
2023-09-15T17:35:26.957Z,93628.09
2023-09-15T17:37:54.576Z,93636.50
2023-09-15T17:40:22.313Z,93634.63
2023-09-15T17:42:49.875Z,93642.28
2023-09-15T17:45:24.947Z,93640.88
2023-09-15T17:47:52.763Z,93644.03
2023-09-15T17:50:20.491Z,93648.78
2023-09-15T17:52:47.902Z,93648.31
2023-09-15T17:55:17.518Z,93652.66
2023-09-15T17:57:48.073Z,93651.47
2023-09-15T18:00:18.213Z,93647.41
2023-09-15T18:02:47.185Z,93664.63
2023-09-15T18:05:15.036Z,93662.84
2023-09-15T18:07:42.513Z,93665.16
2023-09-15T18:10:10.582Z,93661.50
2023-09-15T18:12:39.124Z,93667.47
2023-09-15T18:15:11.816Z,93668.28
2023-09-15T18:17:39.847Z,93672.59
2023-09-15T18:20:10.232Z,93670.00
2023-09-15T18:22:37.638Z,93664.28
2023-09-15T18:25:06.756Z,93675.97
2023-09-15T18:27:34.783Z,93681.22
2023-09-15T18:30:02.843Z,93679.53
2023-09-15T18:32:32.829Z,93691.19
2023-09-15T18:35:00.862Z,93691.31
2023-09-15T18:37:28.317Z,93692.22
2023-09-15T18:39:56.036Z,93695.47
2023-09-15T18:42:23.482Z,93697.97
2023-09-15T18:44:51.772Z,93694.47
2023-09-15T18:47:19.548Z,93703.44
2023-09-15T18:49:47.163Z,93711.28
2023-09-15T18:52:15.527Z,93714.56
2023-09-15T18:54:43.309Z,93712.19
2023-09-15T18:57:10.737Z,93705.66
2023-09-15T19:02:06.710Z,93714.28
2023-09-15T19:04:34.316Z,93719.34
2023-09-15T19:07:01.756Z,93727.91
2023-09-15T19:09:29.574Z,93720.75
2023-09-15T19:11:58.164Z,93723.41
2023-09-15T19:14:25.797Z,93726.66
2023-09-15T19:16:54.621Z,93727.16
2023-09-15T19:19:22.396Z,93726.41
2023-09-15T19:21:50.084Z,93724.44
2023-09-15T19:24:18.084Z,93724.88
2023-09-15T19:26:45.966Z,93729.28
2023-09-15T19:29:13.586Z,93721.59
2023-09-15T19:31:41.416Z,93719.91
2023-09-15T19:34:08.953Z,93721.31
2023-09-15T19:36:36.476Z,93725.44
2023-09-15T19:39:05.052Z,93721.97
2023-09-15T19:41:32.824Z,93717.12
2023-09-15T19:44:00.401Z,93723.44
2023-09-15T19:46:28.416Z,93719.22
2023-09-15T19:48:56.154Z,93717.28
2023-09-15T19:51:28.482Z,93728.09
2023-09-15T19:53:56.261Z,93725.41
2023-09-15T19:56:23.655Z,93728.97
2023-09-15T19:58:51.498Z,93720.69
2023-09-15T20:01:19.379Z,93728.66
2023-09-15T20:03:48.174Z,93722.94
2023-09-15T20:06:15.657Z,93721.97
2023-09-15T20:08:43.052Z,93723.78
2023-09-15T20:11:10.817Z,93721.66
2023-09-15T20:13:38.994Z,93713.31
2023-09-15T20:16:17.561Z,93717.19
2023-09-15T20:18:45.455Z,93725.56
2023-09-15T20:21:12.952Z,93721.41
2023-09-15T20:23:40.757Z,93720.44
2023-09-15T20:26:08.564Z,93721.56
2023-09-15T20:28:36.034Z,93720.53
2023-09-15T20:31:03.637Z,93717.53
2023-09-15T20:33:31.696Z,93710.78
2023-09-15T20:35:59.871Z,93712.94
2023-09-15T20:38:27.609Z,93714.81
2023-09-15T20:40:56.384Z,93716.38
2023-09-15T20:43:24.276Z,93718.22
2023-09-15T20:45:51.777Z,93722.91
2023-09-15T20:48:19.725Z,93718.53
2023-09-15T20:50:50.815Z,93721.97
2023-09-15T20:53:18.272Z,93730.25
2023-09-15T20:55:46.178Z,93724.34
2023-09-15T20:58:16.061Z,93725.06
2023-09-15T21:00:46.413Z,93723.25
2023-09-15T21:03:14.322Z,93728.25
2023-09-15T21:05:41.754Z,93731.25
2023-09-15T21:08:09.290Z,93736.66
2023-09-15T21:10:36.988Z,93737.09
2023-09-15T21:13:04.714Z,93744.63
2023-09-15T21:15:32.227Z,93742.19
2023-09-15T21:17:59.993Z,93737.59
2023-09-15T21:20:27.925Z,93739.09
2023-09-15T21:22:57.827Z,93739.78
2023-09-15T21:25:25.980Z,93745.25
2023-09-15T21:27:53.410Z,93746.91
2023-09-15T21:30:20.944Z,93752.69
2023-09-15T21:32:48.805Z,93747.38
2023-09-15T21:35:16.476Z,93752.09
2023-09-15T21:37:44.030Z,93760.34
2023-09-15T21:40:11.892Z,93752.34
2023-09-15T21:42:39.887Z,93746.31
2023-09-15T21:45:07.890Z,93752.38
2023-09-15T21:47:35.986Z,93749.03
2023-09-15T21:50:03.513Z,93740.44
2023-09-15T21:52:30.898Z,93739.34
2023-09-15T21:54:58.696Z,93728.59
2023-09-15T21:57:26.165Z,93725.78
2023-09-15T21:59:53.619Z,93731.50
2023-09-15T22:02:21.989Z,93731.62
2023-09-15T22:04:49.855Z,93734.00
2023-09-15T22:07:17.283Z,93726.66
2023-09-15T22:09:44.870Z,93722.19
2023-09-15T22:12:12.829Z,93714.28
2023-09-15T22:14:40.212Z,93715.75
2023-09-15T22:17:07.659Z,93716.38
2023-09-15T22:19:36.335Z,93719.72
2023-09-15T22:22:05.694Z,93714.56
2023-09-15T22:24:33.134Z,93730.38
2023-09-15T22:27:00.835Z,93725.53
2023-09-15T22:29:28.220Z,93727.69
2023-09-15T22:31:55.792Z,93722.81
2023-09-15T22:34:23.705Z,93734.09
2023-09-15T22:36:51.926Z,93738.41
2023-09-15T22:39:19.410Z,93734.69
2023-09-15T22:41:46.987Z,93741.13
2023-09-15T22:44:14.239Z,93744.13
2023-09-15T22:46:41.637Z,93744.50
2023-09-15T22:49:13.442Z,93746.13
2023-09-15T22:51:42.123Z,93743.63
2023-09-15T22:54:09.915Z,93744.50
2023-09-15T22:56:37.152Z,93750.13
2023-09-15T22:59:04.964Z,93747.97
2023-09-15T23:01:32.726Z,93744.97
2023-09-15T23:04:00.142Z,93750.63
2023-09-15T23:06:28.676Z,93751.66
2023-09-15T23:08:56.323Z,93764.66
2023-09-15T23:11:23.739Z,93776.25
2023-09-15T23:13:50.982Z,93789.06
2023-09-15T23:16:18.713Z,93812.44
2023-09-15T23:18:46.102Z,93814.53
2023-09-15T23:21:16.344Z,93815.69
2023-09-15T23:23:43.925Z,93809.47
2023-09-15T23:26:11.263Z,93814.53
2023-09-15T23:28:39.721Z,93817.56
2023-09-15T23:31:07.894Z,93817.84
2023-09-15T23:33:35.860Z,93804.63
2023-09-15T23:36:06.661Z,93781.94
2023-09-15T23:38:37.544Z,93770.38
2023-09-15T23:41:05.233Z,93760.88
2023-09-15T23:43:33.370Z,93752.22
2023-09-15T23:46:01.097Z,93749.56
2023-09-15T23:48:28.679Z,93768.84
2023-09-15T23:50:57.445Z,93765.59
2023-09-15T23:53:24.922Z,93768.78
2023-09-15T23:55:52.652Z,93771.94
2023-09-15T23:58:19.952Z,93772.19
